Time;durP1;ratioP1;P1;durP2;ratioP2;P2;SDS_P1;SDS_P2;PMS_P1;PMS_P2;Temp;Humidity;BMP_temperature;BMP_pressure;BME280_temperature;BME280_humidity;BME280_pressure;Samples;Min_cycle;Max_cycle;Signal;HPM_P1;HPM_P2
2022/11/23 00:00:15;;;;;;;4.18;1.75;;;;;;;;;;10493329;28;20051;-59
2022/11/23 00:05:15;;;;;;;7.38;1.70;;;;;;;;;;10492456;28;20036;-61
2022/11/23 00:10:17;;;;;;;7.00;2.13;;;;;;;;;;10493174;28;20024;-62
2022/11/23 00:15:24;;;;;;;4.82;1.60;;;;;;;;;;10493021;28;20044;-56
2022/11/23 00:20:24;;;;;;;2.88;1.88;;;;;;;;;;10492339;28;20064;-62
2022/11/23 00:25:26;;;;;;;2.88;1.73;;;;;;;;;;10492269;28;20055;-59
2022/11/23 00:30:28;;;;;;;5.45;1.67;;;;;;;;;;10492044;28;20025;-62
2022/11/23 00:35:28;;;;;;;3.55;1.70;;;;;;;;;;10491844;28;20043;-63
2022/11/23 00:40:29;;;;;;;2.70;1.35;;;;;;;;;;10492313;28;20023;-61
2022/11/23 00:45:29;;;;;;;2.40;1.75;;;;;;;;;;10492207;28;20035;-62
2022/11/23 00:50:30;;;;;;;3.78;1.60;;;;;;;;;;10492062;28;20028;-63
2022/11/23 00:55:31;;;;;;;2.33;1.60;;;;;;;;;;10492402;28;20025;-62
2022/11/23 01:00:31;;;;;;;3.97;1.50;;;;;;;;;;10491983;28;20491;-63
2022/11/23 01:05:36;;;;;;;4.35;2.00;;;;;;;;;;10492378;28;20468;-61
2022/11/23 01:10:36;;;;;;;2.15;1.33;;;;;;;;;;10491556;28;20039;-63
2022/11/23 01:15:37;;;;;;;2.08;1.48;;;;;;;;;;10490780;28;20039;-60
2022/11/23 01:20:38;;;;;;;4.60;1.58;;;;;;;;;;10491375;28;20085;-64
2022/11/23 01:25:39;;;;;;;5.47;1.55;;;;;;;;;;10491875;28;20048;-64
2022/11/23 01:30:40;;;;;;;4.35;1.83;;;;;;;;;;10491401;28;20032;-64
2022/11/23 01:35:40;;;;;;;5.88;1.75;;;;;;;;;;10491663;28;20028;-64
2022/11/23 01:40:41;;;;;;;1.90;1.30;;;;;;;;;;10491338;28;20392;-64
2022/11/23 01:45:59;;;;;;;2.92;1.23;;;;;;;;;;10491077;28;20036;-64
2022/11/23 01:51:04;;;;;;;3.17;1.70;;;;;;;;;;10491230;28;20078;-64
2022/11/23 01:56:09;;;;;;;1.98;1.73;;;;;;;;;;10490635;28;20426;-62
2022/11/23 02:01:10;;;;;;;2.60;1.30;;;;;;;;;;10473052;28;20078;-62
2022/11/23 02:06:18;;;;;;;2.95;1.63;;;;;;;;;;10490445;28;20162;-62
2022/11/23 02:11:18;;;;;;;1.67;1.20;;;;;;;;;;10472911;28;20421;-60
2022/11/23 02:16:19;;;;;;;2.08;1.40;;;;;;;;;;10490856;28;20123;-60
2022/11/23 02:21:20;;;;;;;7.43;1.73;;;;;;;;;;10490419;28;20016;-64
2022/11/23 02:26:30;;;;;;;7.57;1.52;;;;;;;;;;10493511;28;20024;-63
2022/11/23 02:31:31;;;;;;;2.33;1.52;;;;;;;;;;10498023;28;20049;-60
2022/11/23 02:36:45;;;;;;;2.35;1.50;;;;;;;;;;10497807;28;20043;-62
2022/11/23 02:41:52;;;;;;;3.42;1.42;;;;;;;;;;10479617;28;20087;-64
2022/11/23 02:46:53;;;;;;;1.75;1.40;;;;;;;;;;10497483;28;20029;-61
2022/11/23 02:51:54;;;;;;;3.17;1.52;;;;;;;;;;10497261;28;20040;-62
2022/11/23 02:56:54;;;;;;;2.08;1.23;;;;;;;;;;10496618;28;20041;-61
2022/11/23 03:01:55;;;;;;;2.83;1.40;;;;;;;;;;10496313;28;20035;-61
2022/11/23 03:06:55;;;;;;;3.10;1.40;;;;;;;;;;10496379;28;20022;-59
2022/11/23 03:11:56;;;;;;;1.58;1.40;;;;;;;;;;10496663;28;20034;-65
2022/11/23 03:16:58;;;;;;;3.47;1.40;;;;;;;;;;10495767;28;20032;-63
2022/11/23 03:21:58;;;;;;;1.60;1.30;;;;;;;;;;10495919;28;20068;-65
2022/11/23 03:27:00;;;;;;;2.95;1.30;;;;;;;;;;10495916;28;20028;-64
2022/11/23 03:32:00;;;;;;;1.48;1.20;;;;;;;;;;10496205;28;20028;-46
2022/11/23 03:37:01;;;;;;;2.88;1.27;;;;;;;;;;10494429;28;20028;-46
2022/11/23 03:42:01;;;;;;;2.42;1.40;;;;;;;;;;10495105;28;20032;-46
2022/11/23 03:47:02;;;;;;;3.80;1.55;;;;;;;;;;10495045;28;20103;-47
2022/11/23 03:52:03;;;;;;;3.15;1.30;;;;;;;;;;10495163;28;20509;-46
2022/11/23 03:57:03;;;;;;;1.92;1.40;;;;;;;;;;10494510;28;20056;-48
2022/11/23 04:02:06;;;;;;;1.73;1.45;;;;;;;;;;10494231;28;20024;-47
2022/11/23 04:07:07;;;;;;;2.05;1.40;;;;;;;;;;10493976;28;20510;-54
2022/11/23 04:12:09;;;;;;;2.13;1.10;;;;;;;;;;10493944;28;20074;-64
2022/11/23 04:17:09;;;;;;;1.33;1.23;;;;;;;;;;10494248;28;20060;-46
2022/11/23 04:22:10;;;;;;;1.83;1.50;;;;;;;;;;10493481;28;20407;-59
2022/11/23 04:27:10;;;;;;;1.13;1.10;;;;;;;;;;10475261;28;20060;-46
2022/11/23 04:32:11;;;;;;;1.55;1.10;;;;;;;;;;10493700;28;20029;-48
2022/11/23 04:37:11;;;;;;;1.90;1.35;;;;;;;;;;10492825;28;20032;-46
2022/11/23 04:42:12;;;;;;;2.45;1.25;;;;;;;;;;10493286;28;20032;-46
2022/11/23 04:47:13;;;;;;;1.67;1.20;;;;;;;;;;10492973;28;20082;-48
2022/11/23 04:52:13;;;;;;;2.58;1.42;;;;;;;;;;10492213;28;20031;-47
2022/11/23 04:57:14;;;;;;;3.83;1.20;;;;;;;;;;10493094;28;20295;-46
2022/11/23 05:02:15;;;;;;;2.35;1.52;;;;;;;;;;10492672;28;20499;-47
2022/11/23 05:07:15;;;;;;;3.58;1.40;;;;;;;;;;10491936;28;20028;-46
2022/11/23 05:12:16;;;;;;;2.17;1.30;;;;;;;;;;10492349;28;20028;-46
2022/11/23 05:17:17;;;;;;;1.30;1.20;;;;;;;;;;10492237;28;20078;-46
2022/11/23 05:22:17;;;;;;;1.50;1.35;;;;;;;;;;10491523;28;20044;-47
2022/11/23 05:27:18;;;;;;;4.95;1.48;;;;;;;;;;10492080;28;20036;-46
2022/11/23 05:32:18;;;;;;;3.85;1.15;;;;;;;;;;10491929;28;20024;-47
2022/11/23 05:37:19;;;;;;;3.03;1.33;;;;;;;;;;10491738;28;20070;-47
2022/11/23 05:42:19;;;;;;;1.48;1.10;;;;;;;;;;10492256;28;20036;-49
2022/11/23 05:47:20;;;;;;;1.92;1.08;;;;;;;;;;10491073;28;20097;-46
2022/11/23 05:52:23;;;;;;;1.92;1.40;;;;;;;;;;10491005;28;20028;-46
2022/11/23 05:57:23;;;;;;;2.55;1.70;;;;;;;;;;10473334;28;20039;-48
2022/11/23 06:02:24;;;;;;;1.65;1.05;;;;;;;;;;10495107;28;20436;-46
2022/11/23 06:07:24;;;;;;;1.30;1.20;;;;;;;;;;10498576;28;20472;-46
2022/11/23 06:12:27;;;;;;;1.00;0.95;;;;;;;;;;10498135;28;20100;-46
2022/11/23 06:17:28;;;;;;;1.10;1.00;;;;;;;;;;10498725;28;20029;-46
2022/11/23 06:22:28;;;;;;;1.40;1.30;;;;;;;;;;10497872;28;20491;-48
2022/11/23 06:27:29;;;;;;;1.95;1.20;;;;;;;;;;10497781;28;20462;-50
2022/11/23 06:32:29;;;;;;;2.28;1.40;;;;;;;;;;10498066;28;20086;-48
2022/11/23 06:37:30;;;;;;;1.23;1.00;;;;;;;;;;10497368;28;20039;-48
2022/11/23 06:42:30;;;;;;;2.40;1.58;;;;;;;;;;10497285;28;20028;-47
2022/11/23 06:47:31;;;;;;;4.97;1.73;;;;;;;;;;10496644;28;20036;-47
2022/11/23 06:52:32;;;;;;;6.22;2.10;;;;;;;;;;10497049;28;20028;-50
2022/11/23 06:57:32;;;;;;;4.53;1.70;;;;;;;;;;10496361;28;20043;-51
2022/11/23 07:02:33;;;;;;;4.47;2.88;;;;;;;;;;10496316;28;20025;-51
2022/11/23 07:07:33;;;;;;;6.22;1.70;;;;;;;;;;10496219;28;20036;-51
2022/11/23 07:12:34;;;;;;;4.65;2.38;;;;;;;;;;10493761;28;20021;-51
2022/11/23 07:17:43;;;;;;;10.40;1.92;;;;;;;;;;10496102;28;20028;-48
2022/11/23 07:22:44;;;;;;;6.70;1.92;;;;;;;;;;10495919;28;20048;-51
2022/11/23 07:27:44;;;;;;;5.70;2.10;;;;;;;;;;10495310;28;20056;-47
2022/11/23 07:32:45;;;;;;;2.80;2.13;;;;;;;;;;10495827;28;20025;-51
2022/11/23 07:37:46;;;;;;;5.97;1.83;;;;;;;;;;10495511;28;20423;-47
2022/11/23 07:42:46;;;;;;;5.95;3.10;;;;;;;;;;10494983;28;20176;-51
2022/11/23 07:47:56;;;;;;;10.57;2.10;;;;;;;;;;10495287;28;20176;-50
2022/11/23 07:52:56;;;;;;;5.68;1.70;;;;;;;;;;10494616;28;20460;-51
2022/11/23 07:57:57;;;;;;;3.22;1.80;;;;;;;;;;10494599;28;20036;-59
2022/11/23 08:02:58;;;;;;;3.53;1.98;;;;;;;;;;10494100;28;20421;-58
2022/11/23 08:08:00;;;;;;;5.22;2.00;;;;;;;;;;10493881;28;20029;-52
2022/11/23 08:13:04;;;;;;;4.93;2.13;;;;;;;;;;10493810;28;20115;-48
2022/11/23 08:18:05;;;;;;;4.07;1.90;;;;;;;;;;10493763;28;20029;-49
2022/11/23 08:23:05;;;;;;;8.27;2.03;;;;;;;;;;10493128;28;20079;-49
2022/11/23 08:28:06;;;;;;;6.70;1.95;;;;;;;;;;10493575;28;20361;-50
2022/11/23 08:33:08;;;;;;;9.82;2.38;;;;;;;;;;10492926;28;20480;-55
2022/11/23 08:38:09;;;;;;;4.28;2.00;;;;;;;;;;10493017;28;20036;-57
2022/11/23 08:43:10;;;;;;;3.30;1.83;;;;;;;;;;10492604;28;20249;-51
2022/11/23 08:48:11;;;;;;;3.67;2.25;;;;;;;;;;10492954;28;20175;-48
2022/11/23 08:53:11;;;;;;;3.10;1.92;;;;;;;;;;10492369;28;20400;-55
2022/11/23 08:58:12;;;;;;;5.53;2.22;;;;;;;;;;10492470;28;20040;-47
2022/11/23 09:03:12;;;;;;;5.53;2.10;;;;;;;;;;10491941;28;20078;-48
2022/11/23 09:08:15;;;;;;;3.20;2.13;;;;;;;;;;10491648;28;20029;-48
2022/11/23 09:13:15;;;;;;;3.90;2.67;;;;;;;;;;10492071;28;20055;-48
2022/11/23 09:18:16;;;;;;;4.60;2.50;;;;;;;;;;10491598;28;20032;-57
2022/11/23 09:23:16;;;;;;;3.08;2.20;;;;;;;;;;10491615;28;20036;-51
2022/11/23 09:28:23;;;;;;;3.75;2.38;;;;;;;;;;10491431;28;20036;-53
2022/11/23 09:33:24;;;;;;;3.03;2.30;;;;;;;;;;10491871;28;20020;-48
2022/11/23 09:38:25;;;;;;;2.85;2.25;;;;;;;;;;10497857;28;20184;-56
2022/11/23 09:43:37;;;;;;;4.25;2.20;;;;;;;;;;10499763;28;20467;-52
2022/11/23 09:49:08;;;;;;;3.78;2.42;;;;;;;;;;10482046;28;20024;-49
2022/11/23 09:54:41;;;;;;;5.57;2.58;;;;;;;;;;10483252;28;20086;-55
2022/11/23 09:59:53;;;;;;;6.00;2.58;;;;;;;;;;10484360;28;20021;-48
2022/11/23 10:04:57;;;;;;;3.78;2.63;;;;;;;;;;10482721;28;20040;-50
2022/11/23 10:10:12;;;;;;;5.25;2.25;;;;;;;;;;10499637;28;20021;-52
2022/11/23 10:15:37;;;;;;;3.67;2.38;;;;;;;;;;10498384;28;20125;-51
2022/11/23 10:21:05;;;;;;;4.25;2.30;;;;;;;;;;10468795;28;20132;-51
2022/11/23 10:26:13;;;;;;;2.70;2.33;;;;;;;;;;10481143;28;20037;-52
2022/11/23 10:31:18;;;;;;;3.47;2.38;;;;;;;;;;10480286;28;20035;-54
2022/11/23 10:36:18;;;;;;;4.00;2.67;;;;;;;;;;10498537;28;20116;-48
2022/11/23 10:41:19;;;;;;;5.90;2.30;;;;;;;;;;10497906;28;20383;-55
2022/11/23 10:46:36;;;;;;;3.05;2.30;;;;;;;;;;10479054;28;20036;-54
2022/11/23 10:51:37;;;;;;;3.08;2.22;;;;;;;;;;10496962;28;20052;-47
2022/11/23 10:56:49;;;;;;;2.88;2.10;;;;;;;;;;10479444;28;20113;-58
2022/11/23 11:02:08;;;;;;;3.72;2.30;;;;;;;;;;10479748;28;20032;-50
2022/11/23 11:07:29;;;;;;;2.90;2.30;;;;;;;;;;10478670;28;20024;-47
2022/11/23 11:12:33;;;;;;;2.28;2.08;;;;;;;;;;10497205;28;20085;-46
2022/11/23 11:17:36;;;;;;;2.75;2.30;;;;;;;;;;10495851;28;20032;-51
2022/11/23 11:22:37;;;;;;;5.22;2.40;;;;;;;;;;10495862;28;20049;-51
2022/11/23 11:27:49;;;;;;;4.45;2.30;;;;;;;;;;10495663;28;20020;-50
2022/11/23 11:33:27;;;;;;;2.85;2.22;;;;;;;;;;10479508;28;20039;-48
2022/11/23 11:38:36;;;;;;;3.55;2.00;;;;;;;;;;10478591;28;20115;-54
2022/11/23 11:43:47;;;;;;;2.88;2.10;;;;;;;;;;10477481;28;20024;-49
2022/11/23 11:48:56;;;;;;;4.80;1.95;;;;;;;;;;10477749;28;20027;-54
2022/11/23 11:54:19;;;;;;;2.97;1.65;;;;;;;;;;10477239;28;20025;-55
2022/11/23 11:59:44;;;;;;;3.40;1.75;;;;;;;;;;10493630;28;20028;-49
2022/11/23 12:05:14;;;;;;;2.38;1.73;;;;;;;;;;10476815;28;20606;-48
2022/11/23 12:10:18;;;;;;;1.88;1.67;;;;;;;;;;10487339;28;20492;-50
2022/11/23 12:15:23;;;;;;;2.63;1.67;;;;;;;;;;10475819;28;20025;-51
2022/11/23 12:21:00;;;;;;;2.28;1.58;;;;;;;;;;10493466;28;20471;-49
2022/11/23 12:26:31;;;;;;;3.38;2.05;;;;;;;;;;10492138;28;20395;-51
2022/11/23 12:31:53;;;;;;;1.80;1.70;;;;;;;;;;10492812;28;20040;-48
2022/11/23 12:37:34;;;;;;;2.97;1.85;;;;;;;;;;10493275;28;20036;-50
2022/11/23 12:42:51;;;;;;;2.33;1.80;;;;;;;;;;10493274;28;20031;-49
2022/11/23 12:48:17;;;;;;;2.20;1.70;;;;;;;;;;10492464;28;20103;-47
2022/11/23 12:53:41;;;;;;;2.35;1.77;;;;;;;;;;10492751;28;20472;-57
2022/11/23 12:58:45;;;;;;;1.90;1.65;;;;;;;;;;10474020;28;20040;-55
2022/11/23 13:03:45;;;;;;;2.85;1.45;;;;;;;;;;10474764;28;20070;-50
2022/11/23 13:08:59;;;;;;;2.58;1.50;;;;;;;;;;10492151;28;20054;-51
2022/11/23 13:14:46;;;;;;;1.80;1.40;;;;;;;;;;10473241;28;20029;-52
2022/11/23 13:20:21;;;;;;;1.85;1.38;;;;;;;;;;10466296;28;20047;-49
2022/11/23 13:25:28;;;;;;;2.33;1.65;;;;;;;;;;10492003;28;20502;-59
2022/11/23 13:30:32;;;;;;;1.70;1.38;;;;;;;;;;10491668;28;20040;-56
2022/11/23 13:35:32;;;;;;;1.73;1.58;;;;;;;;;;10491741;28;20048;-50
2022/11/23 13:40:35;;;;;;;3.50;1.63;;;;;;;;;;10491174;28;20158;-46
2022/11/23 13:45:36;;;;;;;2.90;1.55;;;;;;;;;;10490805;28;20491;-46
2022/11/23 13:50:39;;;;;;;2.33;1.30;;;;;;;;;;10490865;28;20031;-47
2022/11/23 13:55:41;;;;;;;3.80;1.70;;;;;;;;;;10471889;28;20090;-52
2022/11/23 14:01:08;;;;;;;1.52;1.40;;;;;;;;;;10490549;28;20028;-49
2022/11/23 14:06:51;;;;;;;2.67;1.40;;;;;;;;;;10486285;28;20035;-55
2022/11/23 14:12:07;;;;;;;3.20;1.55;;;;;;;;;;10458467;28;20533;-50
2022/11/23 14:17:42;;;;;;;3.40;1.55;;;;;;;;;;10444710;28;20067;-51
2022/11/23 14:22:51;;;;;;;1.83;1.20;;;;;;;;;;10477389;28;20392;-46
2022/11/23 14:28:28;;;;;;;2.40;1.52;;;;;;;;;;10496939;28;20029;-48
2022/11/23 14:33:58;;;;;;;2.55;1.38;;;;;;;;;;10481055;28;20032;-49
2022/11/23 14:39:43;;;;;;;2.38;1.48;;;;;;;;;;10495202;28;20056;-50
2022/11/23 14:44:44;;;;;;;2.80;1.30;;;;;;;;;;10497220;28;20102;-49
2022/11/23 14:49:51;;;;;;;8.07;1.50;;;;;;;;;;10496110;28;20031;-50
2022/11/23 14:54:56;;;;;;;3.55;1.40;;;;;;;;;;10495852;28;20029;-53
2022/11/23 15:00:00;;;;;;;1.70;1.42;;;;;;;;;;10496054;28;20086;-55
2022/11/23 15:05:19;;;;;;;2.50;1.20;;;;;;;;;;10476658;28;20491;-49
2022/11/23 15:10:48;;;;;;;3.25;1.63;;;;;;;;;;10495380;28;20020;-47
2022/11/23 15:15:54;;;;;;;;;;;;;;;;;;10496095;28;20039;-47
2022/11/23 15:21:06;;;;;;;2.63;1.40;;;;;;;;;;10487475;28;19912;-50
2022/11/23 15:26:20;;;;;;;2.17;1.02;;;;;;;;;;10454274;28;20052;-49
2022/11/23 15:31:35;;;;;;;4.20;1.40;;;;;;;;;;10430228;28;20021;-49
2022/11/23 15:36:37;;;;;;;2.63;1.40;;;;;;;;;;10452944;28;20058;-53
2022/11/23 15:41:38;;;;;;;1.83;1.20;;;;;;;;;;10451930;28;20025;-51
2022/11/23 15:46:40;;;;;;;2.55;1.38;;;;;;;;;;10435331;28;20025;-47
2022/11/23 15:51:43;;;;;;;1.52;1.27;;;;;;;;;;10450570;28;20021;-46
2022/11/23 15:56:49;;;;;;;1.25;1.15;;;;;;;;;;10451898;28;20069;-51
2022/11/23 16:01:49;;;;;;;2.67;1.30;;;;;;;;;;10434702;28;20035;-48
2022/11/23 16:06:50;;;;;;;1.63;1.15;;;;;;;;;;10450457;28;20021;-46
2022/11/23 16:11:50;;;;;;;6.18;1.38;;;;;;;;;;10452500;28;20025;-50
2022/11/23 16:17:18;;;;;;;2.35;1.30;;;;;;;;;;10451921;28;20416;-47
2022/11/23 16:22:35;;;;;;;4.80;1.33;;;;;;;;;;10462672;28;20097;-49
2022/11/23 16:27:36;;;;;;;1.65;1.23;;;;;;;;;;10476207;28;20045;-57
2022/11/23 16:32:37;;;;;;;1.40;1.30;;;;;;;;;;10475722;28;20098;-49
2022/11/23 16:37:37;;;;;;;5.13;1.70;;;;;;;;;;10492957;28;20472;-46
2022/11/23 16:42:38;;;;;;;1.63;1.30;;;;;;;;;;10492470;28;20024;-47
2022/11/23 16:48:00;;;;;;;3.05;1.40;;;;;;;;;;10492504;28;20024;-50
2022/11/23 16:53:18;;;;;;;1.50;1.38;;;;;;;;;;10492846;28;20033;-47
2022/11/23 16:58:19;;;;;;;4.60;1.30;;;;;;;;;;10491666;28;20503;-50
2022/11/23 17:03:20;;;;;;;1.50;1.25;;;;;;;;;;10491527;28;20479;-46
2022/11/23 17:08:20;;;;;;;4.53;1.45;;;;;;;;;;10491835;28;20024;-48
2022/11/23 17:13:27;;;;;;;2.33;1.30;;;;;;;;;;10491109;28;20472;-48
2022/11/23 17:18:28;;;;;;;3.05;1.48;;;;;;;;;;10472517;28;20238;-47
2022/11/23 17:23:28;;;;;;;1.63;1.10;;;;;;;;;;10491196;28;20250;-48
2022/11/23 17:28:29;;;;;;;4.43;1.38;;;;;;;;;;10491382;28;20037;-49
2022/11/23 17:33:30;;;;;;;1.60;1.40;;;;;;;;;;10489901;28;20436;-48
2022/11/23 17:38:30;;;;;;;2.80;1.33;;;;;;;;;;10384496;28;20028;-57
2022/11/23 17:43:31;;;;;;;2.58;1.35;;;;;;;;;;10484383;28;20021;-48
2022/11/23 17:48:32;;;;;;;2.30;1.63;;;;;;;;;;10490468;28;20033;-48
2022/11/23 17:53:33;;;;;;;1.70;1.10;;;;;;;;;;10491590;28;20029;-47
2022/11/23 17:58:34;;;;;;;1.88;1.30;;;;;;;;;;10494670;28;20479;-45
2022/11/23 18:03:34;;;;;;;3.08;1.60;;;;;;;;;;10498048;28;20455;-44
2022/11/23 18:08:36;;;;;;;3.40;1.70;;;;;;;;;;10498237;28;20231;-49
2022/11/23 18:13:37;;;;;;;1.67;1.45;;;;;;;;;;10497977;28;20036;-46
2022/11/23 18:18:38;;;;;;;1.90;1.65;;;;;;;;;;10497900;28;20032;-48
2022/11/23 18:23:41;;;;;;;3.55;2.03;;;;;;;;;;10496541;28;20094;-50
2022/11/23 18:28:41;;;;;;;3.58;1.75;;;;;;;;;;10496526;28;20033;-46
2022/11/23 18:33:43;;;;;;;14.77;8.57;;;;;;;;;;10497943;28;20158;-46
2022/11/23 18:38:44;;;;;;;23.42;13.38;;;;;;;;;;10497771;28;20391;-46
2022/11/23 18:43:45;;;;;;;26.02;14.55;;;;;;;;;;10495788;28;20017;-45
2022/11/23 18:48:47;;;;;;;26.77;14.10;;;;;;;;;;10496303;28;20060;-46
2022/11/23 18:53:50;;;;;;;26.85;13.88;;;;;;;;;;10496509;28;20086;-45
2022/11/23 18:58:50;;;;;;;28.17;13.23;;;;;;;;;;10496001;28;20032;-45
2022/11/23 19:03:52;;;;;;;24.48;12.25;;;;;;;;;;10496513;28;20029;-46
2022/11/23 19:08:53;;;;;;;28.52;12.80;;;;;;;;;;10496328;28;20382;-48
2022/11/23 19:13:56;;;;;;;21.30;12.60;;;;;;;;;;10497030;28;20032;-45
2022/11/23 19:19:04;;;;;;;22.58;11.88;;;;;;;;;;10495513;28;20024;-47
2022/11/23 19:24:07;;;;;;;19.60;12.05;;;;;;;;;;10495861;28;20333;-49
2022/11/23 19:29:08;;;;;;;23.25;11.77;;;;;;;;;;10494573;28;20033;-45
2022/11/23 19:34:09;;;;;;;25.60;11.30;;;;;;;;;;10494783;28;20033;-47
2022/11/23 19:39:10;;;;;;;21.42;10.77;;;;;;;;;;10494490;28;20328;-45
2022/11/23 19:44:10;;;;;;;22.30;10.60;;;;;;;;;;10495557;28;20020;-47
2022/11/23 19:49:11;;;;;;;23.85;9.85;;;;;;;;;;10494706;28;20376;-49
2022/11/23 19:54:12;;;;;;;16.60;9.82;;;;;;;;;;10494288;28;20032;-46
2022/11/23 19:59:12;;;;;;;19.67;9.30;;;;;;;;;;10494289;28;20028;-45
2022/11/23 20:04:13;;;;;;;17.33;9.75;;;;;;;;;;10494683;28;20032;-50
2022/11/23 20:09:21;;;;;;;18.73;10.18;;;;;;;;;;10493806;28;20032;-46
2022/11/23 20:14:22;;;;;;;17.57;8.70;;;;;;;;;;10494388;28;20031;-43
2022/11/23 20:19:22;;;;;;;19.83;9.38;;;;;;;;;;10492888;28;20491;-46
2022/11/23 20:24:23;;;;;;;28.75;9.63;;;;;;;;;;10492944;28;20044;-47
2022/11/23 20:29:23;;;;;;;20.65;8.73;;;;;;;;;;10492960;28;20033;-46
2022/11/23 20:34:24;;;;;;;19.23;8.23;;;;;;;;;;10493646;28;20056;-46
2022/11/23 20:39:24;;;;;;;12.95;7.68;;;;;;;;;;10492879;28;20066;-47
2022/11/23 20:44:25;;;;;;;15.52;7.95;;;;;;;;;;10492880;28;20025;-45
2022/11/23 20:49:26;;;;;;;18.50;7.40;;;;;;;;;;10492879;28;20031;-47
2022/11/23 20:54:27;;;;;;;16.98;8.52;;;;;;;;;;10493077;28;20486;-47
2022/11/23 20:59:27;;;;;;;14.63;7.22;;;;;;;;;;10492800;28;20429;-48
2022/11/23 21:04:28;;;;;;;19.73;8.38;;;;;;;;;;10492829;28;20093;-45
2022/11/23 21:09:29;;;;;;;13.75;7.50;;;;;;;;;;10491990;28;20537;-48
2022/11/23 21:14:31;;;;;;;13.52;7.60;;;;;;;;;;10491878;28;20175;-45
2022/11/23 21:19:38;;;;;;;13.82;7.28;;;;;;;;;;10492169;28;20036;-48
2022/11/23 21:24:39;;;;;;;13.50;7.38;;;;;;;;;;10491593;28;20040;-46
2022/11/23 21:29:40;;;;;;;12.40;7.07;;;;;;;;;;10491386;28;20445;-48
2022/11/23 21:34:40;;;;;;;13.50;6.60;;;;;;;;;;10491042;28;20036;-48
2022/11/23 21:39:41;;;;;;;14.73;6.80;;;;;;;;;;10491323;28;20024;-46
2022/11/23 21:44:41;;;;;;;13.30;6.18;;;;;;;;;;10491819;28;20052;-46
2022/11/23 21:49:42;;;;;;;11.95;6.97;;;;;;;;;;10490976;28;20064;-45
2022/11/23 21:54:43;;;;;;;12.35;6.40;;;;;;;;;;10491035;28;20025;-46
2022/11/23 21:59:44;;;;;;;14.05;6.65;;;;;;;;;;10491357;28;20507;-46
2022/11/23 22:04:44;;;;;;;13.57;7.10;;;;;;;;;;10490948;28;20187;-48
2022/11/23 22:09:45;;;;;;;10.93;6.82;;;;;;;;;;10490598;28;20032;-46
2022/11/23 22:14:46;;;;;;;10.88;6.85;;;;;;;;;;10490647;28;20024;-44
2022/11/23 22:19:46;;;;;;;16.20;6.75;;;;;;;;;;10490885;28;20028;-48
2022/11/23 22:24:47;;;;;;;11.15;6.28;;;;;;;;;;10490392;28;20117;-48
2022/11/23 22:29:47;;;;;;;10.38;6.55;;;;;;;;;;10490629;28;20029;-50
2022/11/23 22:34:48;;;;;;;12.93;6.68;;;;;;;;;;10490527;28;20384;-48
2022/11/23 22:39:49;;;;;;;15.30;6.45;;;;;;;;;;10490200;28;20361;-45
2022/11/23 22:44:49;;;;;;;10.63;6.22;;;;;;;;;;10495192;28;20024;-45
2022/11/23 22:49:50;;;;;;;8.63;6.10;;;;;;;;;;10497216;28;20086;-44
2022/11/23 22:54:51;;;;;;;9.05;6.00;;;;;;;;;;10497815;28;20070;-46
2022/11/23 22:59:52;;;;;;;11.95;6.88;;;;;;;;;;10497240;28;20032;-45
2022/11/23 23:04:52;;;;;;;11.73;6.40;;;;;;;;;;10497027;28;20036;-45
2022/11/23 23:09:53;;;;;;;11.00;7.15;;;;;;;;;;10496352;28;20187;-45
2022/11/23 23:14:53;;;;;;;8.77;6.03;;;;;;;;;;10496675;28;20032;-46
2022/11/23 23:19:54;;;;;;;11.95;6.47;;;;;;;;;;10495373;28;20028;-46
2022/11/23 23:24:55;;;;;;;8.65;6.63;;;;;;;;;;10491031;28;20081;-46
2022/11/23 23:29:55;;;;;;;10.02;6.65;;;;;;;;;;10492041;28;20028;-59
2022/11/23 23:34:56;;;;;;;9.88;5.93;;;;;;;;;;10492657;28;20087;-45
2022/11/23 23:39:57;;;;;;;10.43;6.78;;;;;;;;;;10492036;28;20036;-49
2022/11/23 23:44:58;;;;;;;8.45;6.13;;;;;;;;;;10488918;28;20059;-47
2022/11/23 23:49:59;;;;;;;24.77;7.03;;;;;;;;;;10483715;28;20268;-46
2022/11/23 23:54:59;;;;;;;24.85;6.05;;;;;;;;;;10488982;28;20248;-47
